Time;durP1;ratioP1;P1;durP2;ratioP2;P2;SDS_P1;SDS_P2;PMS_P1;PMS_P2;Temp;Humidity;BMP_temperature;BMP_pressure;BME280_temperature;BME280_humidity;BME280_pressure;Samples;Min_cycle;Max_cycle;Signal;HPM_P1;HPM_P2
2021/08/07 00:00:19;;;;;;;3.10;2.70;;;;;;;;;;5033254;28;20976;-56
2021/08/07 00:02:46;;;;;;;3.40;2.50;;;;;;;;;;5034584;28;20921;-55
2021/08/07 00:05:13;;;;;;;4.00;2.20;;;;;;;;;;5034230;28;20461;-54
2021/08/07 00:07:40;;;;;;;3.40;2.70;;;;;;;;;;5034127;28;20450;-55
2021/08/07 00:10:08;;;;;;;2.67;2.47;;;;;;;;;;5033993;28;20626;-55
2021/08/07 00:12:36;;;;;;;2.73;2.47;;;;;;;;;;5033582;28;20893;-53
2021/08/07 00:15:03;;;;;;;2.93;2.73;;;;;;;;;;5033481;28;20500;-53
2021/08/07 00:17:32;;;;;;;2.40;2.10;;;;;;;;;;5033622;28;20453;-55
2021/08/07 00:19:59;;;;;;;3.33;2.93;;;;;;;;;;5033417;28;20847;-56
2021/08/07 00:22:27;;;;;;;4.13;2.53;;;;;;;;;;5033618;28;20507;-53
2021/08/07 00:24:54;;;;;;;3.70;2.90;;;;;;;;;;5037189;28;20539;-55
2021/08/07 00:27:21;;;;;;;4.37;2.40;;;;;;;;;;5038096;28;20514;-55
2021/08/07 00:29:48;;;;;;;3.43;3.07;;;;;;;;;;5037103;28;20453;-55
2021/08/07 00:32:15;;;;;;;2.67;2.47;;;;;;;;;;5037480;28;20449;-55
2021/08/07 00:34:44;;;;;;;3.90;2.93;;;;;;;;;;5037486;28;20489;-55
2021/08/07 00:37:11;;;;;;;3.80;3.03;;;;;;;;;;5036942;28;20929;-55
2021/08/07 00:39:39;;;;;;;2.90;2.20;;;;;;;;;;5037195;28;20453;-54
2021/08/07 00:42:06;;;;;;;2.60;2.40;;;;;;;;;;5037417;28;20482;-55
2021/08/07 00:44:33;;;;;;;5.10;2.87;;;;;;;;;;5037548;28;21040;-55
2021/08/07 00:47:00;;;;;;;2.83;2.63;;;;;;;;;;5037495;28;20441;-54
2021/08/07 00:49:27;;;;;;;5.57;2.90;;;;;;;;;;5037673;28;20445;-55
2021/08/07 00:51:56;;;;;;;3.40;2.53;;;;;;;;;;5036889;28;20444;-55
2021/08/07 00:54:23;;;;;;;4.63;2.50;;;;;;;;;;5037405;28;20484;-55
2021/08/07 00:56:51;;;;;;;4.40;2.50;;;;;;;;;;5037112;28;20495;-55
2021/08/07 00:59:18;;;;;;;4.13;2.10;;;;;;;;;;5037579;28;20441;-54
2021/08/07 01:01:46;;;;;;;2.47;2.27;;;;;;;;;;5041155;28;20441;-55
2021/08/07 01:04:15;;;;;;;3.13;2.50;;;;;;;;;;5038263;28;20976;-55
2021/08/07 01:06:47;;;;;;;2.43;2.23;;;;;;;;;;5037852;28;20441;-55
2021/08/07 01:09:20;;;;;;;3.07;2.50;;;;;;;;;;5036678;28;20425;-54
2021/08/07 01:11:50;;;;;;;2.83;2.50;;;;;;;;;;5036353;28;20863;-54
2021/08/07 01:14:19;;;;;;;2.50;2.30;;;;;;;;;;5036393;28;20488;-55
2021/08/07 01:16:48;;;;;;;5.90;2.17;;;;;;;;;;5036497;28;20514;-55
2021/08/07 01:19:17;;;;;;;3.80;2.40;;;;;;;;;;5036574;28;20440;-54
2021/08/07 01:21:47;;;;;;;3.27;2.00;;;;;;;;;;5036306;28;20863;-54
2021/08/07 01:24:20;;;;;;;2.50;2.30;;;;;;;;;;5036166;28;20883;-54
2021/08/07 01:26:49;;;;;;;3.83;2.00;;;;;;;;;;5036096;28;20437;-54
2021/08/07 01:29:19;;;;;;;3.17;2.67;;;;;;;;;;5036349;28;20449;-54
2021/08/07 01:31:47;;;;;;;4.47;2.30;;;;;;;;;;5035900;28;20498;-54
2021/08/07 01:34:15;;;;;;;2.00;1.90;;;;;;;;;;5035943;28;20610;-54
2021/08/07 01:36:43;;;;;;;3.10;2.00;;;;;;;;;;5035052;28;20495;-55
2021/08/07 01:39:10;;;;;;;2.83;2.10;;;;;;;;;;5036043;28;20449;-54
2021/08/07 01:41:37;;;;;;;2.50;2.30;;;;;;;;;;5035686;28;20453;-55
2021/08/07 01:44:04;;;;;;;2.13;1.80;;;;;;;;;;5035504;28;20965;-55
2021/08/07 01:46:35;;;;;;;2.87;2.10;;;;;;;;;;5035632;28;20507;-55
2021/08/07 01:49:05;;;;;;;2.60;2.40;;;;;;;;;;5036416;28;20433;-54
2021/08/07 01:51:38;;;;;;;2.03;1.83;;;;;;;;;;5035719;28;20453;-54
2021/08/07 01:54:07;;;;;;;2.53;2.30;;;;;;;;;;5035653;28;20536;-55
2021/08/07 01:56:35;;;;;;;4.10;2.00;;;;;;;;;;5035348;28;20505;-55
2021/08/07 01:59:05;;;;;;;3.43;2.70;;;;;;;;;;5035750;28;20457;-53
2021/08/07 02:01:32;;;;;;;2.20;2.00;;;;;;;;;;5035557;28;20511;-54
2021/08/07 02:04:02;;;;;;;2.73;2.53;;;;;;;;;;5035850;28;20518;-54
2021/08/07 02:06:30;;;;;;;3.87;2.57;;;;;;;;;;5035427;28;20445;-54
2021/08/07 02:08:57;;;;;;;3.40;2.23;;;;;;;;;;5035658;28;20445;-54
2021/08/07 02:11:25;;;;;;;4.40;2.40;;;;;;;;;;5035467;28;20444;-53
2021/08/07 02:13:53;;;;;;;2.50;2.23;;;;;;;;;;5035234;28;20484;-54
2021/08/07 02:16:20;;;;;;;2.57;2.30;;;;;;;;;;5034948;28;20484;-54
2021/08/07 02:18:48;;;;;;;2.77;2.30;;;;;;;;;;5035307;28;20448;-54
2021/08/07 02:21:18;;;;;;;2.93;2.67;;;;;;;;;;5035289;28;20445;-54
2021/08/07 02:23:48;;;;;;;3.10;2.57;;;;;;;;;;5034935;28;20477;-55
2021/08/07 02:26:16;;;;;;;2.83;2.63;;;;;;;;;;5035404;28;20527;-54
2021/08/07 02:28:43;;;;;;;2.90;2.70;;;;;;;;;;5035016;28;20437;-54
2021/08/07 02:31:11;;;;;;;2.63;2.43;;;;;;;;;;5035142;28;20503;-55
2021/08/07 02:33:38;;;;;;;2.73;2.50;;;;;;;;;;5034835;28;20554;-55
2021/08/07 02:36:06;;;;;;;4.33;2.50;;;;;;;;;;5035036;28;20445;-55
2021/08/07 02:38:35;;;;;;;3.00;2.80;;;;;;;;;;5034612;28;20845;-54
2021/08/07 02:41:03;;;;;;;3.40;3.10;;;;;;;;;;5034530;28;20449;-54
2021/08/07 02:43:31;;;;;;;4.50;2.77;;;;;;;;;;5034697;28;20499;-53
2021/08/07 02:45:59;;;;;;;3.00;2.70;;;;;;;;;;5034708;28;20441;-54
2021/08/07 02:48:27;;;;;;;4.70;2.57;;;;;;;;;;5033823;28;20857;-55
2021/08/07 02:50:55;;;;;;;3.00;2.73;;;;;;;;;;5034498;28;20499;-55
2021/08/07 02:53:22;;;;;;;3.60;3.00;;;;;;;;;;5034228;28;20937;-55
2021/08/07 02:55:51;;;;;;;3.70;2.80;;;;;;;;;;5034539;28;20519;-54
2021/08/07 02:58:18;;;;;;;3.20;2.30;;;;;;;;;;5034610;28;20457;-54
2021/08/07 03:00:46;;;;;;;2.80;2.60;;;;;;;;;;5034522;28;20856;-54
2021/08/07 03:03:13;;;;;;;3.13;2.83;;;;;;;;;;5034123;28;20878;-54
2021/08/07 03:05:42;;;;;;;3.57;3.27;;;;;;;;;;5034093;28;20865;-55
2021/08/07 03:08:09;;;;;;;3.00;2.80;;;;;;;;;;5034341;28;20810;-55
2021/08/07 03:10:36;;;;;;;5.03;2.83;;;;;;;;;;5034113;28;20503;-55
2021/08/07 03:13:05;;;;;;;4.03;3.27;;;;;;;;;;5034210;28;20497;-55
2021/08/07 03:15:32;;;;;;;2.63;2.43;;;;;;;;;;5033988;28;20896;-54
2021/08/07 03:18:00;;;;;;;5.67;2.60;;;;;;;;;;5034589;28;20857;-54
2021/08/07 03:20:31;;;;;;;3.90;2.83;;;;;;;;;;5034039;28;20511;-55
2021/08/07 03:22:59;;;;;;;3.03;2.60;;;;;;;;;;5034192;28;20433;-54
2021/08/07 03:25:26;;;;;;;2.37;2.17;;;;;;;;;;5035201;28;20848;-55
2021/08/07 03:27:53;;;;;;;2.97;2.77;;;;;;;;;;5034109;28;20498;-55
2021/08/07 03:30:22;;;;;;;4.47;3.00;;;;;;;;;;5033790;28;20511;-54
2021/08/07 03:32:49;;;;;;;2.50;2.30;;;;;;;;;;5034077;28;20456;-54
2021/08/07 03:35:17;;;;;;;3.30;2.70;;;;;;;;;;5038154;28;20530;-54
2021/08/07 03:37:44;;;;;;;3.30;3.00;;;;;;;;;;5035513;28;20506;-54
2021/08/07 03:40:12;;;;;;;2.80;2.60;;;;;;;;;;5034987;28;20495;-54
2021/08/07 03:42:40;;;;;;;2.87;2.53;;;;;;;;;;5033585;28;21011;-54
2021/08/07 03:45:08;;;;;;;2.90;2.40;;;;;;;;;;5033457;28;20469;-55
2021/08/07 03:47:45;;;;;;;4.23;2.80;;;;;;;;;;5033763;28;20506;-54
2021/08/07 03:50:13;;;;;;;2.50;2.30;;;;;;;;;;5033411;28;20435;-54
2021/08/07 03:52:40;;;;;;;2.73;2.50;;;;;;;;;;5033646;28;20876;-55
2021/08/07 03:55:07;;;;;;;3.33;3.03;;;;;;;;;;5033085;28;20885;-54
2021/08/07 03:57:47;;;;;;;3.57;2.80;;;;;;;;;;5033480;28;20445;-53
2021/08/07 04:00:14;;;;;;;2.77;2.50;;;;;;;;;;5033298;28;20847;-53
2021/08/07 04:02:41;;;;;;;2.60;2.30;;;;;;;;;;5033440;28;20448;-54
2021/08/07 04:08:27;;;;;;;2.53;2.13;;;;;;;;;;5091412;27;20538;-53
2021/08/07 04:10:54;;;;;;;3.83;2.50;;;;;;;;;;5090841;28;20442;-55
2021/08/07 04:13:21;;;;;;;4.60;2.57;;;;;;;;;;5090758;28;20450;-54
2021/08/07 04:15:49;;;;;;;3.20;2.73;;;;;;;;;;5090445;28;20844;-53
2021/08/07 04:18:16;;;;;;;2.40;2.20;;;;;;;;;;5090420;28;20438;-54
2021/08/07 04:20:43;;;;;;;3.20;2.10;;;;;;;;;;5090731;28;20438;-55
2021/08/07 04:23:10;;;;;;;2.60;2.40;;;;;;;;;;5090348;28;20446;-54
2021/08/07 04:25:39;;;;;;;2.40;2.17;;;;;;;;;;5090470;28;20519;-54
2021/08/07 04:28:07;;;;;;;4.07;1.97;;;;;;;;;;5090343;28;20520;-54
2021/08/07 04:30:35;;;;;;;3.10;2.53;;;;;;;;;;5090427;28;20442;-54
2021/08/07 04:33:02;;;;;;;4.77;2.27;;;;;;;;;;5090098;28;20854;-51
2021/08/07 04:35:29;;;;;;;4.37;2.10;;;;;;;;;;5089993;28;20527;-54
2021/08/07 04:37:57;;;;;;;3.50;1.87;;;;;;;;;;5090420;28;20438;-55
2021/08/07 04:40:26;;;;;;;3.87;2.83;;;;;;;;;;5090012;28;20853;-55
2021/08/07 04:42:55;;;;;;;2.27;2.07;;;;;;;;;;5090314;28;20507;-55
2021/08/07 04:45:22;;;;;;;2.17;1.97;;;;;;;;;;5089868;28;20467;-55
2021/08/07 04:47:57;;;;;;;1.80;1.70;;;;;;;;;;5089808;28;20564;-55
2021/08/07 04:50:24;;;;;;;1.80;1.70;;;;;;;;;;5090081;28;20515;-56
2021/08/07 04:52:52;;;;;;;2.43;2.10;;;;;;;;;;5090165;28;20438;-55
2021/08/07 04:55:19;;;;;;;3.83;2.00;;;;;;;;;;5090046;28;20524;-56
2021/08/07 04:57:46;;;;;;;3.33;2.17;;;;;;;;;;5090021;28;20843;-55
2021/08/07 05:00:15;;;;;;;3.70;2.43;;;;;;;;;;5089678;28;20480;-56
2021/08/07 05:02:45;;;;;;;4.03;2.27;;;;;;;;;;5089646;28;20446;-55
2021/08/07 05:05:13;;;;;;;3.10;2.77;;;;;;;;;;5089831;28;20614;-56
2021/08/07 05:07:40;;;;;;;2.10;1.60;;;;;;;;;;5089273;28;21001;-55
2021/08/07 05:10:09;;;;;;;2.60;1.80;;;;;;;;;;5089814;28;20498;-55
2021/08/07 05:12:36;;;;;;;1.90;1.47;;;;;;;;;;5089741;28;20859;-55
2021/08/07 05:15:04;;;;;;;2.20;1.67;;;;;;;;;;5089402;28;20990;-55
2021/08/07 05:17:33;;;;;;;2.00;1.80;;;;;;;;;;5088961;28;20957;-55
2021/08/07 05:20:00;;;;;;;2.00;1.80;;;;;;;;;;5075694;28;20440;-56
2021/08/07 05:22:27;;;;;;;2.83;1.80;;;;;;;;;;5075715;28;20807;-55
2021/08/07 05:24:54;;;;;;;2.77;2.00;;;;;;;;;;5075913;28;20997;-55
2021/08/07 05:27:22;;;;;;;2.03;1.70;;;;;;;;;;5075905;28;20501;-55
2021/08/07 05:29:49;;;;;;;3.17;1.60;;;;;;;;;;5076039;28;20495;-56
2021/08/07 05:32:16;;;;;;;4.13;1.57;;;;;;;;;;5075874;28;20853;-55
2021/08/07 05:34:45;;;;;;;2.13;1.60;;;;;;;;;;5075636;28;20516;-56
2021/08/07 05:37:12;;;;;;;2.10;1.90;;;;;;;;;;5075940;28;20442;-54
2021/08/07 05:39:39;;;;;;;4.00;1.50;;;;;;;;;;5075370;28;20455;-55
2021/08/07 05:42:06;;;;;;;3.27;1.70;;;;;;;;;;5075394;28;20498;-53
2021/08/07 05:44:34;;;;;;;1.90;1.60;;;;;;;;;;5075609;28;20463;-56
2021/08/07 05:47:01;;;;;;;3.23;1.50;;;;;;;;;;5075204;28;20893;-56
2021/08/07 05:49:28;;;;;;;1.50;1.40;;;;;;;;;;5075631;28;20439;-56
2021/08/07 05:51:57;;;;;;;2.40;1.93;;;;;;;;;;5081933;28;20488;-56
2021/08/07 05:54:24;;;;;;;2.20;1.50;;;;;;;;;;5077329;28;20463;-56
2021/08/07 05:56:51;;;;;;;1.60;1.50;;;;;;;;;;5075300;28;20441;-56
2021/08/07 05:59:18;;;;;;;1.40;1.30;;;;;;;;;;5075053;28;20447;-56
2021/08/07 06:01:46;;;;;;;1.80;1.50;;;;;;;;;;5075349;28;20458;-56
2021/08/07 06:04:13;;;;;;;6.97;2.10;;;;;;;;;;5074932;28;20467;-56
2021/08/07 06:06:40;;;;;;;2.90;1.53;;;;;;;;;;5074766;28;20463;-56
2021/08/07 06:09:09;;;;;;;1.70;1.60;;;;;;;;;;5075710;28;20488;-55
2021/08/07 06:11:36;;;;;;;2.13;1.40;;;;;;;;;;5074847;28;20500;-56
2021/08/07 06:14:03;;;;;;;1.87;1.70;;;;;;;;;;5074696;28;20470;-56
2021/08/07 06:16:30;;;;;;;3.73;1.70;;;;;;;;;;5075018;28;20572;-55
2021/08/07 06:18:58;;;;;;;2.73;1.70;;;;;;;;;;5074571;28;21039;-55
2021/08/07 06:21:25;;;;;;;2.27;1.70;;;;;;;;;;5074675;28;20512;-55
2021/08/07 06:23:53;;;;;;;1.60;1.30;;;;;;;;;;5074524;28;20477;-55
2021/08/07 06:26:22;;;;;;;2.33;1.40;;;;;;;;;;5074517;28;20449;-54
2021/08/07 06:28:49;;;;;;;5.03;1.63;;;;;;;;;;5074429;28;20489;-56
2021/08/07 06:31:16;;;;;;;3.67;1.60;;;;;;;;;;5073788;28;20452;-55
2021/08/07 06:33:44;;;;;;;2.03;1.57;;;;;;;;;;5074613;28;20529;-54
2021/08/07 06:36:11;;;;;;;1.63;1.53;;;;;;;;;;5074484;28;20447;-54
2021/08/07 06:38:38;;;;;;;3.70;1.80;;;;;;;;;;5074197;28;20489;-56
2021/08/07 06:41:06;;;;;;;2.60;1.80;;;;;;;;;;5074481;28;20496;-56
2021/08/07 06:43:34;;;;;;;4.40;1.70;;;;;;;;;;5073947;28;20939;-55
2021/08/07 06:46:02;;;;;;;4.37;1.73;;;;;;;;;;5074355;28;20872;-54
2021/08/07 06:48:29;;;;;;;3.60;1.90;;;;;;;;;;5074297;28;20475;-55
2021/08/07 06:50:56;;;;;;;2.63;1.53;;;;;;;;;;5074011;28;20995;-55
2021/08/07 06:53:23;;;;;;;5.53;1.70;;;;;;;;;;5074099;28;20500;-56
2021/08/07 06:55:51;;;;;;;2.33;1.70;;;;;;;;;;5074245;28;20447;-55
2021/08/07 06:58:18;;;;;;;1.80;1.67;;;;;;;;;;5074096;28;20440;-55
2021/08/07 07:00:47;;;;;;;1.60;1.43;;;;;;;;;;5074136;28;20509;-55
2021/08/07 07:03:14;;;;;;;1.57;1.47;;;;;;;;;;5073964;28;20450;-56
2021/08/07 07:05:41;;;;;;;1.73;1.63;;;;;;;;;;5074022;28;20508;-55
2021/08/07 07:08:08;;;;;;;2.97;1.73;;;;;;;;;;5073431;28;20667;-54
2021/08/07 07:10:37;;;;;;;3.40;1.80;;;;;;;;;;5073926;28;20506;-56
2021/08/07 07:13:04;;;;;;;2.43;1.53;;;;;;;;;;5073722;28;20817;-53
2021/08/07 07:15:31;;;;;;;2.80;1.77;;;;;;;;;;5073737;28;20578;-54
2021/08/07 07:18:00;;;;;;;5.27;1.90;;;;;;;;;;5073684;28;20525;-55
2021/08/07 07:20:28;;;;;;;2.10;1.40;;;;;;;;;;5073617;28;20502;-54
2021/08/07 07:22:55;;;;;;;2.50;1.50;;;;;;;;;;5073533;28;20456;-54
2021/08/07 07:25:22;;;;;;;1.73;1.63;;;;;;;;;;5073469;28;20468;-54
2021/08/07 07:27:49;;;;;;;1.47;1.37;;;;;;;;;;5073414;28;20476;-55
2021/08/07 07:30:18;;;;;;;1.83;1.63;;;;;;;;;;5073530;28;20447;-56
2021/08/07 07:32:45;;;;;;;2.33;1.83;;;;;;;;;;5073251;28;20447;-55
2021/08/07 07:35:14;;;;;;;1.90;1.53;;;;;;;;;;5073487;28;20475;-56
2021/08/07 07:37:41;;;;;;;2.17;1.90;;;;;;;;;;5073097;28;20490;-55
2021/08/07 07:40:10;;;;;;;2.83;1.50;;;;;;;;;;5073074;28;20590;-55
2021/08/07 07:42:37;;;;;;;2.57;2.00;;;;;;;;;;5073181;28;20446;-54
2021/08/07 07:45:04;;;;;;;1.40;1.30;;;;;;;;;;5073101;28;20971;-56
2021/08/07 07:47:32;;;;;;;1.57;1.47;;;;;;;;;;5072867;28;20995;-55
2021/08/07 07:49:59;;;;;;;1.80;1.50;;;;;;;;;;5072960;28;20832;-55
2021/08/07 07:52:27;;;;;;;1.67;1.40;;;;;;;;;;5073180;28;20489;-55
2021/08/07 07:54:55;;;;;;;3.77;1.60;;;;;;;;;;5072828;28;20999;-56
2021/08/07 07:57:22;;;;;;;4.77;1.60;;;;;;;;;;5072815;28;20493;-54
2021/08/07 07:59:49;;;;;;;3.53;1.50;;;;;;;;;;5073232;28;20516;-56
2021/08/07 08:02:17;;;;;;;2.80;1.57;;;;;;;;;;5073099;28;20514;-55
2021/08/07 08:04:44;;;;;;;1.80;1.60;;;;;;;;;;5072808;28;20470;-54
2021/08/07 08:07:11;;;;;;;2.10;1.83;;;;;;;;;;5072750;28;20464;-54
2021/08/07 08:09:40;;;;;;;2.13;1.50;;;;;;;;;;5072862;28;20445;-55
2021/08/07 08:12:07;;;;;;;2.67;1.93;;;;;;;;;;5072765;28;20852;-54
2021/08/07 08:14:35;;;;;;;3.70;1.80;;;;;;;;;;5073065;28;20464;-56
2021/08/07 08:17:02;;;;;;;2.67;1.40;;;;;;;;;;5072760;28;20501;-55
2021/08/07 08:19:29;;;;;;;1.87;1.60;;;;;;;;;;5072663;28;20457;-55
2021/08/07 08:21:56;;;;;;;2.70;2.00;;;;;;;;;;5073258;28;20932;-54
2021/08/07 08:24:24;;;;;;;1.73;1.57;;;;;;;;;;5073035;28;20488;-54
2021/08/07 08:26:52;;;;;;;2.70;1.73;;;;;;;;;;5078393;28;20446;-54
2021/08/07 08:29:19;;;;;;;3.03;2.67;;;;;;;;;;5074937;28;20865;-55
2021/08/07 08:31:47;;;;;;;4.40;2.30;;;;;;;;;;5073333;28;20453;-55
2021/08/07 08:34:14;;;;;;;4.30;2.20;;;;;;;;;;5072618;28;20478;-55
2021/08/07 08:36:41;;;;;;;3.63;2.60;;;;;;;;;;5072739;28;20457;-54
2021/08/07 08:39:09;;;;;;;3.07;2.10;;;;;;;;;;5072844;28;20446;-55
2021/08/07 08:41:36;;;;;;;1.73;1.43;;;;;;;;;;5072554;28;20450;-54
2021/08/07 08:44:05;;;;;;;3.10;1.60;;;;;;;;;;5072500;28;20520;-54
2021/08/07 08:46:33;;;;;;;1.93;1.60;;;;;;;;;;5072856;28;20450;-56
2021/08/07 08:49:00;;;;;;;3.73;3.33;;;;;;;;;;5072290;28;20921;-55
2021/08/07 08:51:30;;;;;;;1.77;1.67;;;;;;;;;;5072352;28;20445;-56
2021/08/07 08:53:57;;;;;;;1.90;1.60;;;;;;;;;;5073971;28;20820;-55
2021/08/07 08:56:26;;;;;;;4.13;2.00;;;;;;;;;;5076119;28;20845;-57
2021/08/07 08:58:54;;;;;;;3.00;2.00;;;;;;;;;;5076112;28;20561;-56
2021/08/07 09:01:22;;;;;;;3.07;1.13;;;;;;;;;;5076119;28;20451;-56
2021/08/07 09:03:50;;;;;;;2.53;1.43;;;;;;;;;;5075802;28;20467;-55
2021/08/07 09:06:17;;;;;;;1.20;1.10;;;;;;;;;;5076153;28;20508;-56
2021/08/07 09:09:00;;;;;;;1.60;1.20;;;;;;;;;;5076395;28;20887;-57
2021/08/07 09:11:27;;;;;;;2.90;1.40;;;;;;;;;;5076200;28;20501;-56
2021/08/07 09:14:16;;;;;;;2.70;1.60;;;;;;;;;;5076200;28;20881;-55
2021/08/07 09:17:04;;;;;;;2.17;1.30;;;;;;;;;;5075908;28;20493;-55
2021/08/07 09:19:47;;;;;;;3.60;1.47;;;;;;;;;;5076575;28;20462;-55
2021/08/07 09:22:17;;;;;;;2.20;1.43;;;;;;;;;;5076481;28;20428;-56
2021/08/07 09:24:54;;;;;;;5.77;1.70;;;;;;;;;;5095871;22;20492;-60
2021/08/07 09:27:28;;;;;;;5.20;1.50;;;;;;;;;;5035961;28;20500;-60
2021/08/07 09:29:55;;;;;;;2.40;1.30;;;;;;;;;;5035253;28;20507;-59
2021/08/07 09:32:24;;;;;;;1.50;1.30;;;;;;;;;;5036634;28;20442;-58
2021/08/07 09:35:05;;;;;;;1.40;1.30;;;;;;;;;;5035195;28;20477;-60
2021/08/07 09:37:32;;;;;;;1.77;1.30;;;;;;;;;;5035316;28;20504;-59
2021/08/07 09:40:00;;;;;;;2.50;1.60;;;;;;;;;;5035930;28;20509;-58
2021/08/07 09:42:28;;;;;;;3.17;1.27;;;;;;;;;;5035294;28;20496;-60
2021/08/07 09:45:06;;;;;;;1.87;1.13;;;;;;;;;;5035532;28;20514;-59
2021/08/07 09:47:34;;;;;;;2.87;1.47;;;;;;;;;;5035244;28;20966;-60
2021/08/07 09:50:02;;;;;;;1.57;1.10;;;;;;;;;;5036132;28;20873;-59
2021/08/07 09:52:37;;;;;;;1.17;1.07;;;;;;;;;;5037292;28;20886;-59
2021/08/07 09:55:05;;;;;;;3.17;1.27;;;;;;;;;;5038159;28;20559;-58
2021/08/07 09:57:32;;;;;;;1.73;1.50;;;;;;;;;;5039238;28;20439;-59
2021/08/07 09:59:59;;;;;;;2.93;1.90;;;;;;;;;;5043599;28;20791;-59
2021/08/07 10:02:31;;;;;;;3.17;2.10;;;;;;;;;;5039886;28;20433;-60
2021/08/07 10:05:00;;;;;;;1.90;1.50;;;;;;;;;;5037199;28;20474;-59
2021/08/07 10:07:27;;;;;;;3.27;1.60;;;;;;;;;;5036717;28;20522;-59
2021/08/07 10:09:55;;;;;;;3.43;1.90;;;;;;;;;;5036124;28;20546;-59
2021/08/07 10:12:22;;;;;;;2.23;1.43;;;;;;;;;;5035756;28;20447;-59
2021/08/07 10:14:50;;;;;;;6.73;1.50;;;;;;;;;;5035231;28;20465;-60
2021/08/07 10:17:18;;;;;;;1.93;1.73;;;;;;;;;;5035093;28;20817;-59
2021/08/07 10:19:47;;;;;;;2.33;1.60;;;;;;;;;;5035174;28;20461;-59
2021/08/07 10:22:16;;;;;;;1.97;1.30;;;;;;;;;;5034824;28;20442;-59
2021/08/07 10:24:45;;;;;;;1.87;1.60;;;;;;;;;;5034427;28;20474;-60
2021/08/07 10:27:12;;;;;;;4.03;1.57;;;;;;;;;;5035216;28;20516;-59
2021/08/07 10:29:41;;;;;;;2.63;1.30;;;;;;;;;;5035194;28;20897;-59
2021/08/07 10:32:08;;;;;;;2.03;1.27;;;;;;;;;;5035023;28;20444;-58
2021/08/07 10:34:37;;;;;;;1.20;1.10;;;;;;;;;;5034721;28;20519;-60
2021/08/07 10:37:04;;;;;;;2.87;1.23;;;;;;;;;;5035370;28;20440;-58
2021/08/07 10:39:34;;;;;;;2.03;1.10;;;;;;;;;;5035434;28;20492;-59
2021/08/07 10:42:01;;;;;;;2.37;2.17;;;;;;;;;;5036235;28;20440;-58
2021/08/07 10:44:28;;;;;;;2.77;2.20;;;;;;;;;;5036683;28;20527;-57
2021/08/07 10:46:57;;;;;;;1.50;1.30;;;;;;;;;;5035299;28;20448;-58
2021/08/07 10:49:37;;;;;;;1.93;1.60;;;;;;;;;;5034525;28;20996;-58
2021/08/07 10:52:24;;;;;;;3.00;1.87;;;;;;;;;;5034865;28;20444;-57
2021/08/07 10:54:53;;;;;;;2.20;1.33;;;;;;;;;;5034270;28;20635;-58
2021/08/07 10:57:34;;;;;;;1.83;1.00;;;;;;;;;;5034458;28;20446;-58
2021/08/07 11:00:01;;;;;;;1.73;0.77;;;;;;;;;;5034729;28;20431;-60
2021/08/07 11:02:29;;;;;;;7.57;6.30;;;;;;;;;;5034370;28;20816;-58
2021/08/07 11:04:56;;;;;;;2.30;1.87;;;;;;;;;;5034083;28;20478;-59
2021/08/07 11:07:23;;;;;;;11.40;10.20;;;;;;;;;;5034099;28;20499;-59
2021/08/07 11:10:06;;;;;;;19.70;16.97;;;;;;;;;;5034147;28;20540;-59
2021/08/07 11:12:34;;;;;;;4.40;2.00;;;;;;;;;;5033930;28;20467;-58
2021/08/07 11:15:12;;;;;;;1.43;1.13;;;;;;;;;;5033880;28;20459;-59
2021/08/07 11:17:48;;;;;;;1.50;1.10;;;;;;;;;;5033574;28;20458;-59
2021/08/07 11:20:30;;;;;;;2.27;1.20;;;;;;;;;;5033825;28;20499;-59
2021/08/07 11:23:11;;;;;;;4.33;0.97;;;;;;;;;;5031392;28;20442;-60
2021/08/07 11:26:02;;;;;;;2.13;1.23;;;;;;;;;;5032953;28;21060;-58
2021/08/07 11:28:30;;;;;;;2.40;1.53;;;;;;;;;;5033207;28;20433;-60
2021/08/07 11:31:17;;;;;;;4.07;1.10;;;;;;;;;;5033583;28;20506;-60
2021/08/07 11:33:44;;;;;;;3.60;1.23;;;;;;;;;;5033577;28;20433;-58
2021/08/07 11:36:13;;;;;;;1.40;0.90;;;;;;;;;;5033418;28;20878;-58
2021/08/07 11:39:00;;;;;;;4.40;1.57;;;;;;;;;;5033541;28;20466;-58
2021/08/07 11:41:32;;;;;;;2.60;1.20;;;;;;;;;;5033330;28;20442;-58
2021/08/07 11:44:02;;;;;;;2.50;1.37;;;;;;;;;;5033655;28;20436;-59
2021/08/07 11:46:35;;;;;;;1.63;0.97;;;;;;;;;;5033583;28;20496;-60
2021/08/07 11:49:02;;;;;;;2.60;1.17;;;;;;;;;;5033075;28;21008;-59
2021/08/07 11:51:32;;;;;;;2.30;1.17;;;;;;;;;;5033165;28;20502;-59
2021/08/07 11:53:59;;;;;;;1.80;1.23;;;;;;;;;;5032928;28;20463;-58
2021/08/07 11:56:26;;;;;;;2.50;1.30;;;;;;;;;;5033657;28;20498;-61
2021/08/07 11:58:56;;;;;;;2.73;1.10;;;;;;;;;;5033289;28;20498;-59
2021/08/07 12:01:27;;;;;;;2.20;1.10;;;;;;;;;;5033041;28;20451;-59
2021/08/07 12:03:55;;;;;;;1.80;1.20;;;;;;;;;;5032699;28;20487;-58
2021/08/07 12:06:23;;;;;;;2.77;1.70;;;;;;;;;;5033936;28;20889;-59
2021/08/07 12:08:50;;;;;;;1.70;1.10;;;;;;;;;;5033079;28;20480;-59
2021/08/07 12:11:18;;;;;;;3.70;1.83;;;;;;;;;;5033183;28;20570;-59
2021/08/07 12:13:51;;;;;;;3.27;1.83;;;;;;;;;;5033483;28;20452;-59
2021/08/07 12:16:20;;;;;;;3.40;1.30;;;;;;;;;;5033454;28;20468;-58
2021/08/07 12:18:48;;;;;;;1.70;1.30;;;;;;;;;;5033094;28;20452;-59
2021/08/07 12:21:16;;;;;;;2.00;1.50;;;;;;;;;;5033961;28;20464;-58
2021/08/07 12:23:45;;;;;;;2.67;1.50;;;;;;;;;;5033003;28;20447;-60
2021/08/07 12:26:12;;;;;;;2.50;1.63;;;;;;;;;;5032639;28;20491;-60
2021/08/07 12:28:40;;;;;;;2.73;1.17;;;;;;;;;;5034088;28;20447;-60
2021/08/07 12:31:07;;;;;;;7.20;2.60;;;;;;;;;;5036992;28;20446;-59
2021/08/07 12:33:37;;;;;;;3.07;1.43;;;;;;;;;;5036872;28;20448;-66
2021/08/07 12:36:12;;;;;;;4.00;3.30;;;;;;;;;;5036957;28;20502;-60
2021/08/07 12:38:41;;;;;;;4.00;1.83;;;;;;;;;;5036650;28;20452;-60
2021/08/07 12:41:08;;;;;;;5.53;2.50;;;;;;;;;;5036570;28;20446;-58
2021/08/07 12:43:36;;;;;;;3.87;1.80;;;;;;;;;;5036716;28;20501;-60
2021/08/07 12:46:05;;;;;;;2.80;1.20;;;;;;;;;;5036784;28;20990;-59
2021/08/07 12:48:53;;;;;;;2.70;1.33;;;;;;;;;;5036990;28;20942;-59
2021/08/07 12:51:22;;;;;;;4.77;2.50;;;;;;;;;;5036685;28;20444;-59
2021/08/07 12:53:49;;;;;;;4.57;2.63;;;;;;;;;;5036435;28;21010;-59
2021/08/07 12:56:17;;;;;;;3.40;1.83;;;;;;;;;;5036039;28;20977;-59
2021/08/07 12:58:57;;;;;;;2.00;1.40;;;;;;;;;;5036699;28;20442;-59
2021/08/07 13:01:25;;;;;;;3.33;1.83;;;;;;;;;;5036664;28;20912;-62
2021/08/07 13:03:55;;;;;;;3.57;2.20;;;;;;;;;;5036761;28;21040;-60
2021/08/07 13:06:22;;;;;;;3.23;1.50;;;;;;;;;;5036152;28;21031;-59
2021/08/07 13:08:49;;;;;;;2.30;1.17;;;;;;;;;;5035873;28;20444;-59
2021/08/07 13:11:18;;;;;;;3.60;1.60;;;;;;;;;;5036315;28;20517;-60
2021/08/07 13:13:46;;;;;;;2.00;1.50;;;;;;;;;;5037158;28;20481;-60
2021/08/07 13:16:14;;;;;;;2.93;1.00;;;;;;;;;;5036249;28;20492;-60
2021/08/07 13:18:41;;;;;;;2.73;1.30;;;;;;;;;;5036138;28;20497;-60
2021/08/07 13:21:28;;;;;;;3.90;1.47;;;;;;;;;;5036028;28;20522;-60
2021/08/07 13:23:56;;;;;;;1.60;1.33;;;;;;;;;;5036318;28;20547;-62
2021/08/07 13:26:23;;;;;;;2.70;1.97;;;;;;;;;;5035984;28;20543;-60
2021/08/07 13:28:50;;;;;;;1.77;1.37;;;;;;;;;;5035588;28;20511;-60
2021/08/07 13:31:29;;;;;;;3.30;2.10;;;;;;;;;;5035745;28;20494;-58
2021/08/07 13:33:56;;;;;;;4.30;3.20;;;;;;;;;;5036617;28;20808;-60
2021/08/07 13:36:24;;;;;;;3.60;2.40;;;;;;;;;;5035211;28;20450;-60
2021/08/07 13:38:52;;;;;;;3.13;1.90;;;;;;;;;;5035210;28;20484;-60
2021/08/07 13:41:20;;;;;;;2.77;1.60;;;;;;;;;;5035667;28;20515;-60
2021/08/07 13:43:47;;;;;;;3.40;2.03;;;;;;;;;;5035802;28;20924;-58
2021/08/07 13:46:14;;;;;;;1.80;1.30;;;;;;;;;;5035459;28;20464;-58
2021/08/07 13:48:41;;;;;;;3.77;1.53;;;;;;;;;;5035662;28;20443;-59
2021/08/07 13:51:08;;;;;;;3.07;2.17;;;;;;;;;;5035289;28;20840;-59
2021/08/07 13:53:36;;;;;;;2.70;1.17;;;;;;;;;;5035085;28;20452;-59
2021/08/07 13:56:05;;;;;;;1.87;1.03;;;;;;;;;;5035591;28;20472;-55
2021/08/07 13:58:32;;;;;;;2.70;1.30;;;;;;;;;;5035580;28;20511;-58
2021/08/07 14:00:59;;;;;;;5.53;1.50;;;;;;;;;;5035153;28;20987;-59
2021/08/07 14:03:26;;;;;;;3.10;1.40;;;;;;;;;;5035103;28;20448;-58
2021/08/07 14:05:54;;;;;;;1.70;1.60;;;;;;;;;;5035020;28;20476;-60
2021/08/07 14:08:21;;;;;;;3.10;2.47;;;;;;;;;;5035208;28;20453;-58
2021/08/07 14:10:48;;;;;;;5.03;4.57;;;;;;;;;;5034994;28;20993;-60
2021/08/07 14:13:17;;;;;;;13.50;12.20;;;;;;;;;;5035154;28;20442;-60
2021/08/07 14:15:47;;;;;;;14.03;12.63;;;;;;;;;;5035063;28;20472;-61
2021/08/07 14:18:15;;;;;;;6.30;4.20;;;;;;;;;;5035998;28;20433;-59
2021/08/07 14:20:42;;;;;;;4.40;2.17;;;;;;;;;;5034997;28;20437;-60
2021/08/07 14:23:09;;;;;;;2.87;1.77;;;;;;;;;;5035966;28;20533;-59
2021/08/07 14:25:37;;;;;;;1.43;1.27;;;;;;;;;;5034179;28;20551;-60
2021/08/07 14:28:04;;;;;;;3.90;1.33;;;;;;;;;;5034883;28;20467;-60
2021/08/07 14:30:33;;;;;;;2.10;1.23;;;;;;;;;;5034562;28;20476;-58
2021/08/07 14:33:05;;;;;;;2.27;1.50;;;;;;;;;;5034755;28;20449;-60
2021/08/07 14:35:32;;;;;;;4.83;2.60;;;;;;;;;;5034341;28;20465;-60
2021/08/07 14:38:00;;;;;;;2.03;1.30;;;;;;;;;;5034303;28;20454;-59
2021/08/07 14:40:27;;;;;;;1.77;1.40;;;;;;;;;;5034571;28;20528;-60
2021/08/07 14:42:54;;;;;;;2.80;1.40;;;;;;;;;;5035804;28;20449;-60
2021/08/07 14:45:21;;;;;;;2.30;1.03;;;;;;;;;;5036305;28;20506;-58
2021/08/07 14:47:50;;;;;;;2.00;1.53;;;;;;;;;;5039906;28;20914;-59
2021/08/07 14:50:17;;;;;;;7.40;1.50;;;;;;;;;;5039729;28;20850;-58
2021/08/07 14:52:44;;;;;;;2.17;1.20;;;;;;;;;;5037595;28;20507;-58
2021/08/07 14:55:12;;;;;;;3.20;1.47;;;;;;;;;;5036526;28;20606;-58